Who's Online

We have 6 guests online

Aviation WX

[source: ADDS]
METAR
KIAD 111452Z 29016G26KT 10SM BKN045 BKN065 M05/M17 A3013 RMK AO2 PK WND 30026/1447 SLP207 T10501172 51025 $ =
TAF
KIAD 111120Z 1112/1218 27008KT P6SM SCT150 FM111400 29013G22KT P6SM FEW050 SCT100 FM111700 29017G26KT P6SM SCT050 FM120100 29009KT P6SM FEW250 FM120800 VRB05KT P6SM SCT200 =
SR / SS: 01:46 / 12:26 UTC (Washington-Dulles 2016-02-11)

JoomlaWatch Agent

Home Products and Services

This section describes Multilink Systems products and services

 

 

Under construction Please Standby